sensor_id;sensor_type;location;lat;lon;timestamp;temperature;humidity
10296;DHT22;5193;51.032;6.356;2024-01-27T00:02:00;2.10;99.90
10296;DHT22;5193;51.032;6.356;2024-01-27T00:04:26;2.10;99.90
10296;DHT22;5193;51.032;6.356;2024-01-27T00:06:52;2.10;99.90
10296;DHT22;5193;51.032;6.356;2024-01-27T00:09:19;2.00;99.90
10296;DHT22;5193;51.032;6.356;2024-01-27T00:11:45;2.00;99.90
10296;DHT22;5193;51.032;6.356;2024-01-27T00:14:16;2.00;99.90
10296;DHT22;5193;51.032;6.356;2024-01-27T00:16:46;1.90;99.90
10296;DHT22;5193;51.032;6.356;2024-01-27T00:19:12;1.90;99.90
10296;DHT22;5193;51.032;6.356;2024-01-27T00:21:37;2.00;99.90
10296;DHT22;5193;51.032;6.356;2024-01-27T00:24:05;2.00;99.90
10296;DHT22;5193;51.032;6.356;2024-01-27T00:26:33;2.00;99.90
10296;DHT22;5193;51.032;6.356;2024-01-27T00:28:58;1.90;99.90
10296;DHT22;5193;51.032;6.356;2024-01-27T00:31:24;1.90;99.90
10296;DHT22;5193;51.032;6.356;2024-01-27T00:33:50;1.90;99.90
10296;DHT22;5193;51.032;6.356;2024-01-27T00:36:15;1.90;99.90
10296;DHT22;5193;51.032;6.356;2024-01-27T00:38:41;1.90;99.90
10296;DHT22;5193;51.032;6.356;2024-01-27T00:41:19;1.90;99.90
10296;DHT22;5193;51.032;6.356;2024-01-27T00:43:45;1.90;99.90
10296;DHT22;5193;51.032;6.356;2024-01-27T00:46:11;1.90;99.90
10296;DHT22;5193;51.032;6.356;2024-01-27T00:48:37;1.80;99.90
10296;DHT22;5193;51.032;6.356;2024-01-27T00:51:02;1.70;99.90
10296;DHT22;5193;51.032;6.356;2024-01-27T00:53:28;1.70;99.90
10296;DHT22;5193;51.032;6.356;2024-01-27T00:55:59;1.60;99.90
10296;DHT22;5193;51.032;6.356;2024-01-27T00:58:24;1.60;99.90
10296;DHT22;5193;51.032;6.356;2024-01-27T01:00:50;1.70;99.90
10296;DHT22;5193;51.032;6.356;2024-01-27T01:03:16;1.70;99.90
10296;DHT22;5193;51.032;6.356;2024-01-27T01:05:41;1.70;99.90
10296;DHT22;5193;51.032;6.356;2024-01-27T01:08:07;1.60;99.90
10296;DHT22;5193;51.032;6.356;2024-01-27T01:10:33;1.60;99.90
10296;DHT22;5193;51.032;6.356;2024-01-27T01:12:59;1.60;99.90
10296;DHT22;5193;51.032;6.356;2024-01-27T01:15:24;1.60;99.90
10296;DHT22;5193;51.032;6.356;2024-01-27T01:17:50;1.70;99.90
10296;DHT22;5193;51.032;6.356;2024-01-27T01:20:16;1.60;99.90
10296;DHT22;5193;51.032;6.356;2024-01-27T01:22:42;1.70;99.90
10296;DHT22;5193;51.032;6.356;2024-01-27T01:25:08;1.60;99.90
10296;DHT22;5193;51.032;6.356;2024-01-27T01:27:34;1.70;99.90
10296;DHT22;5193;51.032;6.356;2024-01-27T01:30:02;1.60;99.90
10296;DHT22;5193;51.032;6.356;2024-01-27T01:32:28;1.60;99.90
10296;DHT22;5193;51.032;6.356;2024-01-27T01:34:53;1.60;99.90
10296;DHT22;5193;51.032;6.356;2024-01-27T01:37:22;1.60;99.90
10296;DHT22;5193;51.032;6.356;2024-01-27T01:39:47;1.60;99.90
10296;DHT22;5193;51.032;6.356;2024-01-27T01:42:13;1.60;99.90
10296;DHT22;5193;51.032;6.356;2024-01-27T01:44:39;1.70;99.90
10296;DHT22;5193;51.032;6.356;2024-01-27T01:47:04;1.70;99.90
10296;DHT22;5193;51.032;6.356;2024-01-27T01:49:30;1.70;99.90
10296;DHT22;5193;51.032;6.356;2024-01-27T01:51:59;1.70;99.90
10296;DHT22;5193;51.032;6.356;2024-01-27T01:54:25;1.70;99.90
10296;DHT22;5193;51.032;6.356;2024-01-27T01:56:54;1.70;99.90
10296;DHT22;5193;51.032;6.356;2024-01-27T01:59:21;1.70;99.90
10296;DHT22;5193;51.032;6.356;2024-01-27T02:01:46;1.70;99.90
10296;DHT22;5193;51.032;6.356;2024-01-27T02:04:12;1.70;99.90
10296;DHT22;5193;51.032;6.356;2024-01-27T02:06:40;1.70;99.90
10296;DHT22;5193;51.032;6.356;2024-01-27T02:09:07;1.70;99.90
10296;DHT22;5193;51.032;6.356;2024-01-27T02:11:33;1.70;99.90
10296;DHT22;5193;51.032;6.356;2024-01-27T02:13:59;1.70;99.90
10296;DHT22;5193;51.032;6.356;2024-01-27T02:16:24;1.60;99.90
10296;DHT22;5193;51.032;6.356;2024-01-27T02:18:52;1.60;99.90
10296;DHT22;5193;51.032;6.356;2024-01-27T02:21:17;1.70;99.90
10296;DHT22;5193;51.032;6.356;2024-01-27T02:23:43;1.60;99.90
10296;DHT22;5193;51.032;6.356;2024-01-27T02:26:08;1.60;99.90
10296;DHT22;5193;51.032;6.356;2024-01-27T02:28:34;1.60;99.90
10296;DHT22;5193;51.032;6.356;2024-01-27T02:31:00;1.60;99.90
10296;DHT22;5193;51.032;6.356;2024-01-27T02:33:26;1.50;99.90
10296;DHT22;5193;51.032;6.356;2024-01-27T02:35:55;1.50;99.90
10296;DHT22;5193;51.032;6.356;2024-01-27T02:38:20;1.60;99.90
10296;DHT22;5193;51.032;6.356;2024-01-27T02:40:46;1.50;99.90
10296;DHT22;5193;51.032;6.356;2024-01-27T02:43:11;1.50;99.90
10296;DHT22;5193;51.032;6.356;2024-01-27T02:45:38;1.50;99.90
10296;DHT22;5193;51.032;6.356;2024-01-27T02:48:04;1.50;99.90
10296;DHT22;5193;51.032;6.356;2024-01-27T02:50:30;1.50;99.90
10296;DHT22;5193;51.032;6.356;2024-01-27T02:52:56;1.50;99.90
10296;DHT22;5193;51.032;6.356;2024-01-27T02:55:21;1.50;99.90
10296;DHT22;5193;51.032;6.356;2024-01-27T02:57:47;1.50;99.90
10296;DHT22;5193;51.032;6.356;2024-01-27T03:00:13;1.50;99.90
10296;DHT22;5193;51.032;6.356;2024-01-27T03:02:41;1.50;99.90
10296;DHT22;5193;51.032;6.356;2024-01-27T03:05:13;1.50;99.90
10296;DHT22;5193;51.032;6.356;2024-01-27T03:07:39;1.60;99.90
10296;DHT22;5193;51.032;6.356;2024-01-27T03:10:06;1.60;99.90
10296;DHT22;5193;51.032;6.356;2024-01-27T03:12:31;1.60;99.90
10296;DHT22;5193;51.032;6.356;2024-01-27T03:14:58;1.60;99.90
10296;DHT22;5193;51.032;6.356;2024-01-27T03:17:23;1.50;99.90
10296;DHT22;5193;51.032;6.356;2024-01-27T03:19:49;1.60;99.90
10296;DHT22;5193;51.032;6.356;2024-01-27T03:22:15;1.60;99.90
10296;DHT22;5193;51.032;6.356;2024-01-27T03:24:40;1.60;99.90
10296;DHT22;5193;51.032;6.356;2024-01-27T03:27:06;1.60;99.90
10296;DHT22;5193;51.032;6.356;2024-01-27T03:29:32;1.60;99.90
10296;DHT22;5193;51.032;6.356;2024-01-27T03:32:01;1.60;99.90
10296;DHT22;5193;51.032;6.356;2024-01-27T03:34:26;1.60;99.90
10296;DHT22;5193;51.032;6.356;2024-01-27T03:36:53;1.60;99.90
10296;DHT22;5193;51.032;6.356;2024-01-27T03:39:19;1.60;99.90
10296;DHT22;5193;51.032;6.356;2024-01-27T03:41:44;1.60;99.90
10296;DHT22;5193;51.032;6.356;2024-01-27T03:44:10;1.60;99.90
10296;DHT22;5193;51.032;6.356;2024-01-27T03:46:36;1.60;99.90
10296;DHT22;5193;51.032;6.356;2024-01-27T03:49:10;1.50;99.90
10296;DHT22;5193;51.032;6.356;2024-01-27T03:51:37;1.50;99.90
10296;DHT22;5193;51.032;6.356;2024-01-27T03:54:04;1.50;99.90
10296;DHT22;5193;51.032;6.356;2024-01-27T03:56:30;1.50;99.90
10296;DHT22;5193;51.032;6.356;2024-01-27T03:59:01;1.40;99.90
10296;DHT22;5193;51.032;6.356;2024-01-27T04:01:32;1.40;99.90
10296;DHT22;5193;51.032;6.356;2024-01-27T04:03:58;1.30;99.90
10296;DHT22;5193;51.032;6.356;2024-01-27T04:06:23;1.30;99.90
10296;DHT22;5193;51.032;6.356;2024-01-27T04:08:49;1.20;99.90
10296;DHT22;5193;51.032;6.356;2024-01-27T04:11:25;1.30;99.90
10296;DHT22;5193;51.032;6.356;2024-01-27T04:13:52;1.20;99.90
10296;DHT22;5193;51.032;6.356;2024-01-27T04:16:17;1.20;99.90
10296;DHT22;5193;51.032;6.356;2024-01-27T04:18:43;1.20;99.90
10296;DHT22;5193;51.032;6.356;2024-01-27T04:21:09;1.20;99.90
10296;DHT22;5193;51.032;6.356;2024-01-27T04:23:37;1.10;99.90
10296;DHT22;5193;51.032;6.356;2024-01-27T04:26:03;1.10;99.90
10296;DHT22;5193;51.032;6.356;2024-01-27T04:28:31;1.10;99.90
10296;DHT22;5193;51.032;6.356;2024-01-27T04:30:57;1.10;99.90
10296;DHT22;5193;51.032;6.356;2024-01-27T04:33:23;1.10;99.90
10296;DHT22;5193;51.032;6.356;2024-01-27T04:35:48;1.10;99.90
10296;DHT22;5193;51.032;6.356;2024-01-27T04:38:17;1.00;99.90
10296;DHT22;5193;51.032;6.356;2024-01-27T04:40:46;1.00;99.90
10296;DHT22;5193;51.032;6.356;2024-01-27T04:43:17;0.90;99.90
10296;DHT22;5193;51.032;6.356;2024-01-27T04:45:43;0.90;99.90
10296;DHT22;5193;51.032;6.356;2024-01-27T04:48:08;0.90;99.90
10296;DHT22;5193;51.032;6.356;2024-01-27T04:50:34;0.80;99.90
10296;DHT22;5193;51.032;6.356;2024-01-27T04:53:00;0.80;99.90
10296;DHT22;5193;51.032;6.356;2024-01-27T04:55:26;0.70;99.90
10296;DHT22;5193;51.032;6.356;2024-01-27T04:57:52;0.70;99.90
10296;DHT22;5193;51.032;6.356;2024-01-27T05:00:18;0.70;99.90
10296;DHT22;5193;51.032;6.356;2024-01-27T05:02:45;0.60;99.90
10296;DHT22;5193;51.032;6.356;2024-01-27T05:05:12;0.60;99.90
10296;DHT22;5193;51.032;6.356;2024-01-27T05:07:38;0.50;99.90
10296;DHT22;5193;51.032;6.356;2024-01-27T05:10:10;0.50;99.90
10296;DHT22;5193;51.032;6.356;2024-01-27T05:12:40;0.40;99.90
10296;DHT22;5193;51.032;6.356;2024-01-27T05:15:06;0.40;99.90
10296;DHT22;5193;51.032;6.356;2024-01-27T05:17:32;0.30;99.90
10296;DHT22;5193;51.032;6.356;2024-01-27T05:19:58;0.30;99.90
10296;DHT22;5193;51.032;6.356;2024-01-27T05:22:28;0.20;99.90
10296;DHT22;5193;51.032;6.356;2024-01-27T05:24:53;0.20;99.90
10296;DHT22;5193;51.032;6.356;2024-01-27T05:27:20;0.10;99.90
10296;DHT22;5193;51.032;6.356;2024-01-27T05:29:46;0.10;99.90
10296;DHT22;5193;51.032;6.356;2024-01-27T05:32:16;0.10;99.90
10296;DHT22;5193;51.032;6.356;2024-01-27T05:34:44;0.10;99.90
10296;DHT22;5193;51.032;6.356;2024-01-27T05:37:13;0.00;99.90
10296;DHT22;5193;51.032;6.356;2024-01-27T05:39:39;0.00;99.90
10296;DHT22;5193;51.032;6.356;2024-01-27T05:42:07;0.00;99.90
10296;DHT22;5193;51.032;6.356;2024-01-27T05:44:33;0.00;99.90
10296;DHT22;5193;51.032;6.356;2024-01-27T05:46:59;-0.10;99.90
10296;DHT22;5193;51.032;6.356;2024-01-27T05:49:27;-0.10;99.90
10296;DHT22;5193;51.032;6.356;2024-01-27T05:51:53;-0.10;99.90
10296;DHT22;5193;51.032;6.356;2024-01-27T05:54:18;-0.10;99.90
10296;DHT22;5193;51.032;6.356;2024-01-27T05:56:47;-0.10;99.90
10296;DHT22;5193;51.032;6.356;2024-01-27T05:59:14;-0.20;99.90
10296;DHT22;5193;51.032;6.356;2024-01-27T06:01:40;-0.20;99.90
10296;DHT22;5193;51.032;6.356;2024-01-27T06:04:09;-0.20;99.90
10296;DHT22;5193;51.032;6.356;2024-01-27T06:06:38;-0.20;99.90
10296;DHT22;5193;51.032;6.356;2024-01-27T06:09:07;-0.20;99.90
10296;DHT22;5193;51.032;6.356;2024-01-27T06:11:37;-0.20;99.90
10296;DHT22;5193;51.032;6.356;2024-01-27T06:14:02;-0.20;99.90
10296;DHT22;5193;51.032;6.356;2024-01-27T06:16:31;-0.20;99.90
10296;DHT22;5193;51.032;6.356;2024-01-27T06:19:00;-0.30;99.90
10296;DHT22;5193;51.032;6.356;2024-01-27T06:21:26;-0.30;99.90
10296;DHT22;5193;51.032;6.356;2024-01-27T06:23:53;-0.30;99.90
10296;DHT22;5193;51.032;6.356;2024-01-27T06:26:19;-0.40;99.90
10296;DHT22;5193;51.032;6.356;2024-01-27T06:28:46;-0.40;99.90
10296;DHT22;5193;51.032;6.356;2024-01-27T06:31:16;-0.40;99.90
10296;DHT22;5193;51.032;6.356;2024-01-27T06:33:41;-0.40;99.90
10296;DHT22;5193;51.032;6.356;2024-01-27T06:36:07;-0.50;99.90
10296;DHT22;5193;51.032;6.356;2024-01-27T06:38:36;-0.50;99.90
10296;DHT22;5193;51.032;6.356;2024-01-27T06:41:03;-0.50;99.90
10296;DHT22;5193;51.032;6.356;2024-01-27T06:43:29;-0.50;99.90
10296;DHT22;5193;51.032;6.356;2024-01-27T06:45:58;-0.50;99.90
10296;DHT22;5193;51.032;6.356;2024-01-27T06:48:24;-0.60;99.90
10296;DHT22;5193;51.032;6.356;2024-01-27T06:50:51;-0.60;99.90
10296;DHT22;5193;51.032;6.356;2024-01-27T06:53:18;-0.60;99.90
10296;DHT22;5193;51.032;6.356;2024-01-27T06:55:45;-0.60;99.90
10296;DHT22;5193;51.032;6.356;2024-01-27T06:58:10;-0.60;99.90
10296;DHT22;5193;51.032;6.356;2024-01-27T07:00:36;-0.60;99.90
10296;DHT22;5193;51.032;6.356;2024-01-27T07:03:01;-0.60;99.90
10296;DHT22;5193;51.032;6.356;2024-01-27T07:05:28;-0.70;99.90
10296;DHT22;5193;51.032;6.356;2024-01-27T07:07:53;-0.60;99.90
10296;DHT22;5193;51.032;6.356;2024-01-27T07:10:19;-0.70;99.90
10296;DHT22;5193;51.032;6.356;2024-01-27T07:12:45;-0.70;99.90
10296;DHT22;5193;51.032;6.356;2024-01-27T07:15:11;-0.70;99.90
10296;DHT22;5193;51.032;6.356;2024-01-27T07:17:36;-0.70;99.90
10296;DHT22;5193;51.032;6.356;2024-01-27T07:20:02;-0.70;99.90
10296;DHT22;5193;51.032;6.356;2024-01-27T07:22:29;-0.70;99.90
10296;DHT22;5193;51.032;6.356;2024-01-27T07:24:55;-0.80;99.90
10296;DHT22;5193;51.032;6.356;2024-01-27T07:27:25;-0.80;99.90
10296;DHT22;5193;51.032;6.356;2024-01-27T07:29:51;-0.80;99.90
10296;DHT22;5193;51.032;6.356;2024-01-27T07:32:19;-0.80;99.90
10296;DHT22;5193;51.032;6.356;2024-01-27T07:34:45;-0.80;99.90
10296;DHT22;5193;51.032;6.356;2024-01-27T07:37:10;-0.80;99.90
10296;DHT22;5193;51.032;6.356;2024-01-27T07:39:36;-0.80;99.90
10296;DHT22;5193;51.032;6.356;2024-01-27T07:42:05;-0.80;99.90
10296;DHT22;5193;51.032;6.356;2024-01-27T07:44:32;-0.80;99.90
10296;DHT22;5193;51.032;6.356;2024-01-27T07:47:02;-0.70;99.90
10296;DHT22;5193;51.032;6.356;2024-01-27T07:49:28;-0.80;99.90
10296;DHT22;5193;51.032;6.356;2024-01-27T07:51:53;-0.70;99.90
10296;DHT22;5193;51.032;6.356;2024-01-27T07:54:20;-0.70;99.90
10296;DHT22;5193;51.032;6.356;2024-01-27T07:56:46;-0.70;99.90
10296;DHT22;5193;51.032;6.356;2024-01-27T07:59:11;-0.70;99.90
10296;DHT22;5193;51.032;6.356;2024-01-27T08:01:43;-0.70;99.90
10296;DHT22;5193;51.032;6.356;2024-01-27T08:04:08;-0.70;99.90
10296;DHT22;5193;51.032;6.356;2024-01-27T08:06:44;-0.60;99.90
10296;DHT22;5193;51.032;6.356;2024-01-27T08:09:10;-0.60;99.90
10296;DHT22;5193;51.032;6.356;2024-01-27T08:11:36;-0.50;99.90
10296;DHT22;5193;51.032;6.356;2024-01-27T08:14:02;-0.50;99.90
10296;DHT22;5193;51.032;6.356;2024-01-27T08:16:28;-0.40;99.90
10296;DHT22;5193;51.032;6.356;2024-01-27T08:18:53;-0.40;99.90
10296;DHT22;5193;51.032;6.356;2024-01-27T08:21:19;-0.40;99.90
10296;DHT22;5193;51.032;6.356;2024-01-27T08:23:48;-0.30;99.90
10296;DHT22;5193;51.032;6.356;2024-01-27T08:26:14;-0.30;99.90
10296;DHT22;5193;51.032;6.356;2024-01-27T08:28:39;-0.20;99.90
10296;DHT22;5193;51.032;6.356;2024-01-27T08:31:05;-0.20;99.90
10296;DHT22;5193;51.032;6.356;2024-01-27T08:33:31;-0.10;99.90
10296;DHT22;5193;51.032;6.356;2024-01-27T08:35:56;-0.10;99.90
10296;DHT22;5193;51.032;6.356;2024-01-27T08:38:22;-0.10;99.90
10296;DHT22;5193;51.032;6.356;2024-01-27T08:40:49;0.00;99.90
10296;DHT22;5193;51.032;6.356;2024-01-27T08:43:16;0.10;99.90
10296;DHT22;5193;51.032;6.356;2024-01-27T08:45:41;0.20;99.90
10296;DHT22;5193;51.032;6.356;2024-01-27T08:48:07;0.30;99.90
10296;DHT22;5193;51.032;6.356;2024-01-27T08:50:33;0.40;99.90
10296;DHT22;5193;51.032;6.356;2024-01-27T08:53:02;0.50;99.90
10296;DHT22;5193;51.032;6.356;2024-01-27T08:55:27;0.70;99.90
10296;DHT22;5193;51.032;6.356;2024-01-27T08:57:53;0.70;99.90
10296;DHT22;5193;51.032;6.356;2024-01-27T09:00:19;0.80;99.90
10296;DHT22;5193;51.032;6.356;2024-01-27T09:02:45;0.90;99.90
10296;DHT22;5193;51.032;6.356;2024-01-27T09:05:11;1.00;99.90
10296;DHT22;5193;51.032;6.356;2024-01-27T09:07:39;1.10;99.90
10296;DHT22;5193;51.032;6.356;2024-01-27T09:10:06;1.10;99.90
10296;DHT22;5193;51.032;6.356;2024-01-27T09:12:32;1.20;99.90
10296;DHT22;5193;51.032;6.356;2024-01-27T09:14:58;1.30;99.90
10296;DHT22;5193;51.032;6.356;2024-01-27T09:17:24;1.40;99.90
10296;DHT22;5193;51.032;6.356;2024-01-27T09:19:50;1.50;99.90
10296;DHT22;5193;51.032;6.356;2024-01-27T09:22:19;1.60;99.90
10296;DHT22;5193;51.032;6.356;2024-01-27T09:24:44;1.70;99.90
10296;DHT22;5193;51.032;6.356;2024-01-27T09:27:11;1.80;99.90
10296;DHT22;5193;51.032;6.356;2024-01-27T09:29:36;1.90;99.90
10296;DHT22;5193;51.032;6.356;2024-01-27T09:32:02;2.00;99.90
10296;DHT22;5193;51.032;6.356;2024-01-27T09:34:28;2.10;99.90
10296;DHT22;5193;51.032;6.356;2024-01-27T09:36:54;2.20;99.90
10296;DHT22;5193;51.032;6.356;2024-01-27T09:39:22;2.40;99.90
10296;DHT22;5193;51.032;6.356;2024-01-27T09:41:48;2.40;99.90
10296;DHT22;5193;51.032;6.356;2024-01-27T09:44:18;2.50;99.90
10296;DHT22;5193;51.032;6.356;2024-01-27T09:46:45;2.60;99.90
10296;DHT22;5193;51.032;6.356;2024-01-27T09:49:16;2.80;99.90
10296;DHT22;5193;51.032;6.356;2024-01-27T09:51:42;2.90;99.90
10296;DHT22;5193;51.032;6.356;2024-01-27T09:54:07;3.00;99.90
10296;DHT22;5193;51.032;6.356;2024-01-27T09:56:34;3.20;99.90
10296;DHT22;5193;51.032;6.356;2024-01-27T09:59:00;3.30;99.90
10296;DHT22;5193;51.032;6.356;2024-01-27T10:01:26;3.40;99.90
10296;DHT22;5193;51.032;6.356;2024-01-27T10:03:57;3.60;99.90
10296;DHT22;5193;51.032;6.356;2024-01-27T10:06:26;3.70;99.90
10296;DHT22;5193;51.032;6.356;2024-01-27T10:08:54;3.80;99.90
10296;DHT22;5193;51.032;6.356;2024-01-27T10:11:22;3.90;99.90
10296;DHT22;5193;51.032;6.356;2024-01-27T10:13:57;4.00;99.90
10296;DHT22;5193;51.032;6.356;2024-01-27T10:16:28;4.20;99.90
10296;DHT22;5193;51.032;6.356;2024-01-27T10:19:02;4.30;99.90
10296;DHT22;5193;51.032;6.356;2024-01-27T10:21:29;4.40;99.90
10296;DHT22;5193;51.032;6.356;2024-01-27T10:23:56;4.50;99.90
10296;DHT22;5193;51.032;6.356;2024-01-27T10:26:22;4.60;99.90
10296;DHT22;5193;51.032;6.356;2024-01-27T10:28:57;4.70;99.90
10296;DHT22;5193;51.032;6.356;2024-01-27T10:31:34;4.80;99.90
10296;DHT22;5193;51.032;6.356;2024-01-27T10:34:00;4.90;99.90
10296;DHT22;5193;51.032;6.356;2024-01-27T10:36:44;5.00;99.90
10296;DHT22;5193;51.032;6.356;2024-01-27T10:39:23;5.00;99.90
10296;DHT22;5193;51.032;6.356;2024-01-27T10:41:50;5.20;99.90
10296;DHT22;5193;51.032;6.356;2024-01-27T10:44:21;5.20;99.90
10296;DHT22;5193;51.032;6.356;2024-01-27T10:46:48;5.40;99.90
10296;DHT22;5193;51.032;6.356;2024-01-27T10:49:17;5.40;99.90
10296;DHT22;5193;51.032;6.356;2024-01-27T10:51:54;5.50;99.90
10296;DHT22;5193;51.032;6.356;2024-01-27T10:54:41;5.60;99.90
10296;DHT22;5193;51.032;6.356;2024-01-27T10:57:08;5.70;99.90
10296;DHT22;5193;51.032;6.356;2024-01-27T10:59:35;5.80;99.90
10296;DHT22;5193;51.032;6.356;2024-01-27T11:02:08;5.90;99.90
10296;DHT22;5193;51.032;6.356;2024-01-27T11:04:38;5.90;99.90
10296;DHT22;5193;51.032;6.356;2024-01-27T11:07:05;6.00;99.90
10296;DHT22;5193;51.032;6.356;2024-01-27T11:09:32;6.10;99.90
10296;DHT22;5193;51.032;6.356;2024-01-27T11:12:01;6.20;99.90
10296;DHT22;5193;51.032;6.356;2024-01-27T11:14:27;6.30;99.90
10296;DHT22;5193;51.032;6.356;2024-01-27T11:16:57;6.30;99.90
10296;DHT22;5193;51.032;6.356;2024-01-27T11:19:24;6.40;99.90
10296;DHT22;5193;51.032;6.356;2024-01-27T11:22:03;6.50;99.90
10296;DHT22;5193;51.032;6.356;2024-01-27T11:24:29;6.60;99.90
10296;DHT22;5193;51.032;6.356;2024-01-27T11:27:13;6.60;99.90
10296;DHT22;5193;51.032;6.356;2024-01-27T11:29:47;6.70;99.90
10296;DHT22;5193;51.032;6.356;2024-01-27T11:32:15;6.80;99.90
10296;DHT22;5193;51.032;6.356;2024-01-27T11:34:44;6.80;99.90
10296;DHT22;5193;51.032;6.356;2024-01-27T11:37:17;6.90;99.90
10296;DHT22;5193;51.032;6.356;2024-01-27T11:39:45;7.00;99.90
10296;DHT22;5193;51.032;6.356;2024-01-27T11:42:12;7.10;99.90
10296;DHT22;5193;51.032;6.356;2024-01-27T11:44:42;7.20;99.90
10296;DHT22;5193;51.032;6.356;2024-01-27T11:47:16;7.20;99.90
10296;DHT22;5193;51.032;6.356;2024-01-27T11:49:42;7.30;99.90
10296;DHT22;5193;51.032;6.356;2024-01-27T11:52:11;7.40;99.90
10296;DHT22;5193;51.032;6.356;2024-01-27T11:54:37;7.40;99.90
10296;DHT22;5193;51.032;6.356;2024-01-27T11:57:04;7.50;99.90
10296;DHT22;5193;51.032;6.356;2024-01-27T11:59:29;7.50;99.90
10296;DHT22;5193;51.032;6.356;2024-01-27T12:01:58;7.60;99.90
10296;DHT22;5193;51.032;6.356;2024-01-27T12:04:26;7.70;99.90
10296;DHT22;5193;51.032;6.356;2024-01-27T12:06:51;7.70;99.90
10296;DHT22;5193;51.032;6.356;2024-01-27T12:09:17;7.80;99.90
10296;DHT22;5193;51.032;6.356;2024-01-27T12:11:43;7.80;99.90
10296;DHT22;5193;51.032;6.356;2024-01-27T12:14:09;7.90;99.90
10296;DHT22;5193;51.032;6.356;2024-01-27T12:16:35;7.90;99.90
10296;DHT22;5193;51.032;6.356;2024-01-27T12:19:01;8.00;99.90
10296;DHT22;5193;51.032;6.356;2024-01-27T12:21:33;8.10;99.90
10296;DHT22;5193;51.032;6.356;2024-01-27T12:24:01;8.10;99.90
10296;DHT22;5193;51.032;6.356;2024-01-27T12:26:29;8.20;99.90
10296;DHT22;5193;51.032;6.356;2024-01-27T12:28:55;8.20;99.90
10296;DHT22;5193;51.032;6.356;2024-01-27T12:31:22;8.30;99.90
10296;DHT22;5193;51.032;6.356;2024-01-27T12:33:54;8.30;99.90
10296;DHT22;5193;51.032;6.356;2024-01-27T12:36:21;8.40;99.90
10296;DHT22;5193;51.032;6.356;2024-01-27T12:39:02;8.50;99.90
10296;DHT22;5193;51.032;6.356;2024-01-27T12:41:31;8.50;99.90
10296;DHT22;5193;51.032;6.356;2024-01-27T12:43:59;8.60;99.90
10296;DHT22;5193;51.032;6.356;2024-01-27T12:46:26;8.70;99.90
10296;DHT22;5193;51.032;6.356;2024-01-27T12:48:51;8.70;99.90
10296;DHT22;5193;51.032;6.356;2024-01-27T12:51:18;8.70;99.90
10296;DHT22;5193;51.032;6.356;2024-01-27T12:53:46;8.70;99.90
10296;DHT22;5193;51.032;6.356;2024-01-27T12:56:13;8.80;99.90
10296;DHT22;5193;51.032;6.356;2024-01-27T12:58:40;8.80;99.90
10296;DHT22;5193;51.032;6.356;2024-01-27T13:01:06;8.90;99.90
10296;DHT22;5193;51.032;6.356;2024-01-27T13:03:32;9.00;99.90
10296;DHT22;5193;51.032;6.356;2024-01-27T13:05:58;9.00;99.90
10296;DHT22;5193;51.032;6.356;2024-01-27T13:08:24;9.00;99.90
10296;DHT22;5193;51.032;6.356;2024-01-27T13:10:49;9.00;99.90
10296;DHT22;5193;51.032;6.356;2024-01-27T13:13:18;9.00;99.90
10296;DHT22;5193;51.032;6.356;2024-01-27T13:15:45;9.10;99.90
10296;DHT22;5193;51.032;6.356;2024-01-27T13:18:11;9.10;99.90
10296;DHT22;5193;51.032;6.356;2024-01-27T13:20:40;9.10;99.90
10296;DHT22;5193;51.032;6.356;2024-01-27T13:23:06;9.20;99.90
10296;DHT22;5193;51.032;6.356;2024-01-27T13:25:32;9.20;99.90
10296;DHT22;5193;51.032;6.356;2024-01-27T13:28:04;9.20;99.90
10296;DHT22;5193;51.032;6.356;2024-01-27T13:30:32;9.20;99.90
10296;DHT22;5193;51.032;6.356;2024-01-27T13:32:58;9.20;99.90
10296;DHT22;5193;51.032;6.356;2024-01-27T13:35:24;9.20;99.90
10296;DHT22;5193;51.032;6.356;2024-01-27T13:37:50;9.20;99.90
10296;DHT22;5193;51.032;6.356;2024-01-27T13:40:16;9.20;99.90
10296;DHT22;5193;51.032;6.356;2024-01-27T13:42:41;9.10;99.90
10296;DHT22;5193;51.032;6.356;2024-01-27T13:45:07;9.10;99.90
10296;DHT22;5193;51.032;6.356;2024-01-27T13:50:59;9.10;99.90
10296;DHT22;5193;51.032;6.356;2024-01-27T13:53:24;9.20;99.90
10296;DHT22;5193;51.032;6.356;2024-01-27T13:55:50;9.20;99.90
10296;DHT22;5193;51.032;6.356;2024-01-27T13:58:19;9.20;99.90
10296;DHT22;5193;51.032;6.356;2024-01-27T14:00:45;9.20;99.90
10296;DHT22;5193;51.032;6.356;2024-01-27T14:03:17;9.20;99.90
10296;DHT22;5193;51.032;6.356;2024-01-27T14:05:45;9.30;99.90
10296;DHT22;5193;51.032;6.356;2024-01-27T14:08:12;9.40;99.90
10296;DHT22;5193;51.032;6.356;2024-01-27T14:10:38;9.30;99.90
10296;DHT22;5193;51.032;6.356;2024-01-27T14:13:05;9.30;99.90
10296;DHT22;5193;51.032;6.356;2024-01-27T14:15:35;9.30;99.90
10296;DHT22;5193;51.032;6.356;2024-01-27T14:18:06;9.30;99.90
10296;DHT22;5193;51.032;6.356;2024-01-27T14:20:32;9.30;99.90
10296;DHT22;5193;51.032;6.356;2024-01-27T14:23:03;9.30;99.90
10296;DHT22;5193;51.032;6.356;2024-01-27T14:25:28;9.30;99.90
10296;DHT22;5193;51.032;6.356;2024-01-27T14:27:54;9.30;99.90
10296;DHT22;5193;51.032;6.356;2024-01-27T14:30:33;9.30;99.90
10296;DHT22;5193;51.032;6.356;2024-01-27T14:33:02;9.20;99.90
10296;DHT22;5193;51.032;6.356;2024-01-27T14:35:28;9.20;99.90
10296;DHT22;5193;51.032;6.356;2024-01-27T14:37:54;9.20;99.90
10296;DHT22;5193;51.032;6.356;2024-01-27T14:40:21;9.20;99.90
10296;DHT22;5193;51.032;6.356;2024-01-27T14:42:47;9.10;99.90
10296;DHT22;5193;51.032;6.356;2024-01-27T14:45:15;9.10;99.90
10296;DHT22;5193;51.032;6.356;2024-01-27T14:47:41;9.10;99.90
10296;DHT22;5193;51.032;6.356;2024-01-27T14:50:06;9.10;99.90
10296;DHT22;5193;51.032;6.356;2024-01-27T14:52:32;9.10;99.90
10296;DHT22;5193;51.032;6.356;2024-01-27T14:54:58;9.00;99.90
10296;DHT22;5193;51.032;6.356;2024-01-27T14:57:23;9.00;99.90
10296;DHT22;5193;51.032;6.356;2024-01-27T14:59:49;9.00;99.90
10296;DHT22;5193;51.032;6.356;2024-01-27T15:02:16;9.00;99.90
10296;DHT22;5193;51.032;6.356;2024-01-27T15:04:41;9.00;99.90
10296;DHT22;5193;51.032;6.356;2024-01-27T15:07:07;9.00;99.90
10296;DHT22;5193;51.032;6.356;2024-01-27T15:09:34;9.00;99.90
10296;DHT22;5193;51.032;6.356;2024-01-27T15:12:03;9.00;99.90
10296;DHT22;5193;51.032;6.356;2024-01-27T15:14:29;9.00;99.90
10296;DHT22;5193;51.032;6.356;2024-01-27T15:16:55;8.90;99.90
10296;DHT22;5193;51.032;6.356;2024-01-27T15:19:22;8.80;99.90
10296;DHT22;5193;51.032;6.356;2024-01-27T15:21:48;8.80;99.90
10296;DHT22;5193;51.032;6.356;2024-01-27T15:24:14;8.70;99.90
10296;DHT22;5193;51.032;6.356;2024-01-27T15:26:43;8.60;99.90
10296;DHT22;5193;51.032;6.356;2024-01-27T15:29:08;8.60;99.90
10296;DHT22;5193;51.032;6.356;2024-01-27T15:31:34;8.50;99.90
10296;DHT22;5193;51.032;6.356;2024-01-27T15:33:59;8.50;99.90
10296;DHT22;5193;51.032;6.356;2024-01-27T15:36:25;8.40;99.90
10296;DHT22;5193;51.032;6.356;2024-01-27T15:38:50;8.20;99.90
10296;DHT22;5193;51.032;6.356;2024-01-27T15:41:23;8.20;99.90
10296;DHT22;5193;51.032;6.356;2024-01-27T15:43:49;8.10;99.90
10296;DHT22;5193;51.032;6.356;2024-01-27T15:46:15;8.00;99.90
10296;DHT22;5193;51.032;6.356;2024-01-27T15:48:44;7.90;99.90
10296;DHT22;5193;51.032;6.356;2024-01-27T15:51:09;7.90;99.90
10296;DHT22;5193;51.032;6.356;2024-01-27T15:53:35;7.70;99.90
10296;DHT22;5193;51.032;6.356;2024-01-27T15:56:04;7.70;99.90
10296;DHT22;5193;51.032;6.356;2024-01-27T15:58:29;7.60;99.90
10296;DHT22;5193;51.032;6.356;2024-01-27T16:00:55;7.50;99.90
10296;DHT22;5193;51.032;6.356;2024-01-27T16:03:21;7.40;99.90